Irving South's Hourly Summary for Monday, May 14, 2018
Hour Temp
(f)
RH
(%)
Solar Rad.
(MJ/m2)
Rainfall
(in)
Wind
(mph)
5/14/2018 12:00 AM 79 64 0 0 0.46
5/14/2018 1:00 AM 78 66 0 0 1.35
5/14/2018 2:00 AM 78 66 0 0 1.9
5/14/2018 3:00 AM 77 69 0 0 1.35
5/14/2018 4:00 AM 75 74 0 0 0.54
5/14/2018 5:00 AM 74 78 0 0 0.19
5/14/2018 6:00 AM 73 82 0 0 0.43
5/14/2018 7:00 AM 72 83 0.02 0 0.87
5/14/2018 8:00 AM 72 80 0.21 0 1
5/14/2018 9:00 AM 75 74 0.88 0 2.72
5/14/2018 10:00 AM 76 71 1.22 0 5.24
5/14/2018 11:00 AM 79 62 2.19 0 6
5/14/2018 12:00 PM 81 56 3.09 0 5.53
5/14/2018 1:00 PM 83 53 3.1 0 5.66
5/14/2018 2:00 PM 85 48 3.39 0 6.26
5/14/2018 3:00 PM 86 48 3.17 0 5.89
5/14/2018 4:00 PM 87 45 2.69 0 4.83
5/14/2018 5:00 PM 87 46 1.64 0 3.95
5/14/2018 6:00 PM 87 45 1.38 0 2.79
5/14/2018 7:00 PM 87 46 0.62 0 2.1
5/14/2018 8:00 PM 84 49 0.12 0 1.21
5/14/2018 9:00 PM 82 55 0.01 0 0.84
5/14/2018 10:00 PM 80 61 0 0 0.39
5/14/2018 11:00 PM 79 64 0 0 0.85
Data Summary 79 61 23.73 0.00 2.60